Malo, Washington
Current Conditions -  °F | °C
As of 2:53 AM on Wednesday 22 Oct 2014 (Local Time) from KOMK Reporting Station
Overcast Overcast  
Wind Chill: 45°   Ceiling: 6500
Heat Index: 49°   Visibility: 10mi
Dew Point: 41°   Wind: 9mph
Humidity: 74%   Direction: 200°SSW
Pressure: 29.86"   Gusts: NA
Location:  48.8°N, 118.61°W
Report Text: KOMK 220953Z AUTO 20008KT 10SM BKN065 OVC120 09/05 A2986 RMK AO2 SLP114 T00940050
Loading
Personal Weather Stations






























Interactive Weather Map
Tropical Storm Tracking
New forecast layout! Learn more

10-Day Weather Forecast

Advertisements
Track Severe Weather on mobile